Time;durP1;ratioP1;P1;durP2;ratioP2;P2;SDS_P1;SDS_P2;PMS_P1;PMS_P2;Temp;Humidity;BMP_temperature;BMP_pressure;BME280_temperature;BME280_humidity;BME280_pressure;Samples;Min_cycle;Max_cycle;Signal;HPM_P1;HPM_P2
2023/03/20 00:01:28;;;;;;;66.50;35.63;;;;;;;;;;7361447;19;20259;-79
2023/03/20 00:03:54;;;;;;;63.67;34.03;;;;;;;;;;7366893;19;20452;-83
2023/03/20 00:06:23;;;;;;;61.55;33.83;;;;;;;;;;7362143;19;20042;-85
2023/03/20 00:08:50;;;;;;;67.25;34.80;;;;;;;;;;7337845;19;20391;-81
2023/03/20 00:11:28;;;;;;;62.63;33.80;;;;;;;;;;7364926;19;20053;-79
2023/03/20 00:13:54;;;;;;;60.72;32.38;;;;;;;;;;7361633;19;20379;-81
2023/03/20 00:16:21;;;;;;;60.35;32.45;;;;;;;;;;7366201;19;20441;-83
2023/03/20 00:18:47;;;;;;;58.58;30.50;;;;;;;;;;7367417;19;19999;-79
2023/03/20 00:21:16;;;;;;;60.55;31.77;;;;;;;;;;7367628;19;20735;-78
2023/03/20 00:23:41;;;;;;;62.22;32.63;;;;;;;;;;7361612;19;20244;-78
2023/03/20 00:26:08;;;;;;;63.30;32.38;;;;;;;;;;7368361;19;20002;-82
2023/03/20 00:28:39;;;;;;;57.80;31.13;;;;;;;;;;7365701;19;20021;-78
2023/03/20 00:31:12;;;;;;;59.88;31.60;;;;;;;;;;7364371;19;20013;-82
2023/03/20 00:33:38;;;;;;;61.03;31.65;;;;;;;;;;7365103;19;20573;-79
2023/03/20 00:36:05;;;;;;;62.53;31.67;;;;;;;;;;7366706;19;19999;-84
2023/03/20 00:38:30;;;;;;;65.13;31.38;;;;;;;;;;7356677;19;20246;-81
2023/03/20 00:40:55;;;;;;;59.75;30.77;;;;;;;;;;7368971;19;20086;-83
2023/03/20 00:43:20;;;;;;;59.10;30.70;;;;;;;;;;7360254;19;20231;-82
2023/03/20 00:45:46;;;;;;;54.85;29.92;;;;;;;;;;7366178;19;20303;-83
2023/03/20 00:48:13;;;;;;;57.10;28.67;;;;;;;;;;7353887;19;20036;-81
2023/03/20 00:50:38;;;;;;;61.60;29.67;;;;;;;;;;7365206;19;20332;-82
2023/03/20 00:53:05;;;;;;;58.55;28.95;;;;;;;;;;7354712;19;20034;-80
2023/03/20 00:55:30;;;;;;;56.33;28.65;;;;;;;;;;7370228;19;20002;-84
2023/03/20 00:58:02;;;;;;;55.13;28.75;;;;;;;;;;7360652;19;20286;-82
2023/03/20 01:00:38;;;;;;;53.00;26.67;;;;;;;;;;7366839;19;19999;-83
2023/03/20 01:03:10;;;;;;;48.95;26.10;;;;;;;;;;7358001;19;20038;-83
2023/03/20 01:05:36;;;;;;;53.10;25.30;;;;;;;;;;7369092;19;20395;-83
2023/03/20 01:08:01;;;;;;;50.93;26.10;;;;;;;;;;7356357;19;19999;-79
2023/03/20 01:10:28;;;;;;;49.45;25.30;;;;;;;;;;7357751;19;20227;-79
2023/03/20 01:12:57;;;;;;;53.42;26.08;;;;;;;;;;7351743;19;20462;-80
2023/03/20 01:15:24;;;;;;;45.78;24.88;;;;;;;;;;7365072;19;20003;-80
2023/03/20 01:17:49;;;;;;;45.42;22.55;;;;;;;;;;7361224;19;20002;-79
2023/03/20 01:20:16;;;;;;;46.33;23.23;;;;;;;;;;7363826;19;20592;-80
2023/03/20 01:22:41;;;;;;;45.20;22.63;;;;;;;;;;7365248;19;20034;-82
2023/03/20 01:25:06;;;;;;;41.13;21.53;;;;;;;;;;7356851;19;19999;-81
2023/03/20 01:27:31;;;;;;;38.42;20.63;;;;;;;;;;7366139;19;20255;-83
2023/03/20 01:29:56;;;;;;;42.92;20.83;;;;;;;;;;7365046;19;20238;-80
2023/03/20 01:32:22;;;;;;;41.92;20.40;;;;;;;;;;7336737;19;20268;-82
2023/03/20 01:34:47;;;;;;;40.92;22.02;;;;;;;;;;7353415;19;20003;-81
2023/03/20 01:37:17;;;;;;;43.75;21.80;;;;;;;;;;7361865;19;21284;-80
2023/03/20 01:39:42;;;;;;;47.25;23.17;;;;;;;;;;7355512;19;20003;-82
2023/03/20 01:42:07;;;;;;;45.13;22.52;;;;;;;;;;7363807;19;20042;-81
2023/03/20 01:44:33;;;;;;;51.42;24.00;;;;;;;;;;7362576;19;20455;-83
2023/03/20 01:47:00;;;;;;;43.20;22.55;;;;;;;;;;7354046;19;20010;-83
2023/03/20 01:49:25;;;;;;;47.33;24.02;;;;;;;;;;7359882;19;20009;-80
2023/03/20 01:51:51;;;;;;;46.50;24.05;;;;;;;;;;7337934;19;20423;-81
2023/03/20 01:54:19;;;;;;;50.58;24.27;;;;;;;;;;7356079;19;20131;-83
2023/03/20 01:56:47;;;;;;;46.40;22.73;;;;;;;;;;7356902;19;20021;-81
2023/03/20 01:59:17;;;;;;;49.17;24.10;;;;;;;;;;7363929;19;20007;-81
2023/03/20 02:01:43;;;;;;;44.10;22.02;;;;;;;;;;7362412;19;20112;-81
2023/03/20 02:04:09;;;;;;;45.75;22.50;;;;;;;;;;7359232;19;20000;-79
2023/03/20 02:06:35;;;;;;;50.60;23.42;;;;;;;;;;7356112;19;19998;-80
2023/03/20 02:09:01;;;;;;;42.20;22.00;;;;;;;;;;7354867;19;19999;-81
2023/03/20 02:11:26;;;;;;;45.25;22.23;;;;;;;;;;7369492;19;20005;-78
2023/03/20 02:13:53;;;;;;;41.85;21.67;;;;;;;;;;7353271;19;20084;-81
2023/03/20 02:16:19;;;;;;;37.72;19.73;;;;;;;;;;7368362;19;20648;-82
2023/03/20 02:18:46;;;;;;;37.13;18.98;;;;;;;;;;7370866;19;20617;-80
2023/03/20 02:21:31;;;;;;;34.53;18.65;;;;;;;;;;7367235;19;20011;-80
2023/03/20 02:24:14;;;;;;;42.90;18.33;;;;;;;;;;7363914;19;20474;-82
2023/03/20 02:26:39;;;;;;;35.92;18.40;;;;;;;;;;7366419;19;20105;-81
2023/03/20 02:29:27;;;;;;;34.97;17.60;;;;;;;;;;7369565;19;20066;-78
2023/03/20 02:31:53;;;;;;;35.85;18.02;;;;;;;;;;7364522;19;20003;-84
2023/03/20 02:34:21;;;;;;;35.67;18.20;;;;;;;;;;7367226;19;20012;-78
2023/03/20 02:36:58;;;;;;;34.85;17.58;;;;;;;;;;7370304;19;20010;-80
2023/03/20 02:39:29;;;;;;;39.90;17.42;;;;;;;;;;7369942;19;20019;-80
2023/03/20 02:42:11;;;;;;;31.58;15.70;;;;;;;;;;7371970;19;19999;-85
2023/03/20 02:44:40;;;;;;;31.40;17.17;;;;;;;;;;7371035;19;20007;-82
2023/03/20 02:47:12;;;;;;;31.92;16.92;;;;;;;;;;7358677;19;20010;-79
2023/03/20 02:49:46;;;;;;;36.90;18.20;;;;;;;;;;7368869;19;20099;-80
2023/03/20 02:52:12;;;;;;;36.53;19.02;;;;;;;;;;7323692;19;20006;-82
2023/03/20 02:54:45;;;;;;;33.13;17.85;;;;;;;;;;7251175;19;20007;-83
2023/03/20 02:57:13;;;;;;;37.13;18.85;;;;;;;;;;7248402;19;20006;-85
2023/03/20 02:59:39;;;;;;;34.50;16.88;;;;;;;;;;7257724;19;20928;-83
2023/03/20 03:02:07;;;;;;;34.40;17.48;;;;;;;;;;7256717;19;19999;-83
2023/03/20 03:04:35;;;;;;;38.40;18.35;;;;;;;;;;7262183;19;20245;-84
2023/03/20 03:07:02;;;;;;;37.40;19.27;;;;;;;;;;7261512;19;20747;-84
2023/03/20 03:09:33;;;;;;;37.40;18.90;;;;;;;;;;7271003;19;20611;-85
2023/03/20 03:12:06;;;;;;;38.80;18.95;;;;;;;;;;7268660;19;20005;-86
2023/03/20 03:14:38;;;;;;;34.17;17.85;;;;;;;;;;7269044;19;20799;-85
2023/03/20 03:17:04;;;;;;;33.63;17.95;;;;;;;;;;7260086;19;20233;-86
2023/03/20 03:19:31;;;;;;;37.78;18.70;;;;;;;;;;7268341;19;20299;-81
2023/03/20 03:21:56;;;;;;;33.03;17.63;;;;;;;;;;7267241;19;20467;-84
2023/03/20 03:24:31;;;;;;;32.38;17.15;;;;;;;;;;7252568;19;21052;-85
2023/03/20 03:26:58;;;;;;;33.92;18.02;;;;;;;;;;7251991;19;20287;-85
2023/03/20 03:29:25;;;;;;;34.67;17.33;;;;;;;;;;7259105;19;20584;-85
2023/03/20 03:31:51;;;;;;;34.08;18.25;;;;;;;;;;7247409;19;20003;-85
2023/03/20 03:34:17;;;;;;;35.60;17.80;;;;;;;;;;7265503;19;20026;-85
2023/03/20 03:36:53;;;;;;;32.53;16.33;;;;;;;;;;7263442;19;20538;-84
2023/03/20 03:39:42;;;;;;;32.63;17.98;;;;;;;;;;7251759;19;20937;-86
2023/03/20 03:42:16;;;;;;;33.45;16.85;;;;;;;;;;7260518;19;20010;-82
2023/03/20 03:44:44;;;;;;;36.10;19.52;;;;;;;;;;7271526;19;20320;-81
2023/03/20 03:47:20;;;;;;;38.20;20.05;;;;;;;;;;7265475;19;20007;-85
2023/03/20 03:49:50;;;;;;;43.90;18.48;;;;;;;;;;7270410;19;21041;-84
2023/03/20 03:52:18;;;;;;;38.13;20.17;;;;;;;;;;7296519;19;20014;-80
2023/03/20 03:54:56;;;;;;;38.55;18.88;;;;;;;;;;7373141;19;20324;-80
2023/03/20 03:57:28;;;;;;;37.08;19.15;;;;;;;;;;7352626;19;20044;-83
2023/03/20 03:59:53;;;;;;;32.92;18.17;;;;;;;;;;7366471;19;19998;-79
2023/03/20 04:02:20;;;;;;;36.10;18.65;;;;;;;;;;7360110;19;19998;-83
2023/03/20 04:04:47;;;;;;;38.53;19.85;;;;;;;;;;7357145;19;20495;-79
2023/03/20 04:07:13;;;;;;;35.60;17.80;;;;;;;;;;7363500;19;20026;-80
2023/03/20 04:09:38;;;;;;;42.08;20.55;;;;;;;;;;7371713;19;20003;-80
2023/03/20 04:12:04;;;;;;;38.15;19.85;;;;;;;;;;7369898;19;20006;-83
2023/03/20 04:14:30;;;;;;;40.47;19.58;;;;;;;;;;7369514;19;20239;-79
2023/03/20 04:16:55;;;;;;;37.05;19.40;;;;;;;;;;7366100;19;20020;-81
2023/03/20 04:19:20;;;;;;;39.70;20.80;;;;;;;;;;7369788;19;20102;-82
2023/03/20 04:21:45;;;;;;;38.40;19.03;;;;;;;;;;7354403;19;20223;-82
2023/03/20 04:24:11;;;;;;;37.03;19.40;;;;;;;;;;7366004;19;20231;-80
2023/03/20 04:26:36;;;;;;;37.63;20.33;;;;;;;;;;7370717;19;20340;-80
2023/03/20 04:29:02;;;;;;;36.25;19.85;;;;;;;;;;7368384;19;20536;-83
2023/03/20 04:31:27;;;;;;;37.70;18.92;;;;;;;;;;7360476;19;20029;-81
2023/03/20 04:33:52;;;;;;;39.17;19.05;;;;;;;;;;7366181;19;20001;-81
2023/03/20 04:36:17;;;;;;;41.57;19.20;;;;;;;;;;7361500;19;20026;-79
2023/03/20 04:38:43;;;;;;;42.30;20.75;;;;;;;;;;7365988;19;20692;-79
2023/03/20 04:41:08;;;;;;;39.25;20.38;;;;;;;;;;7366838;19;19998;-82
2023/03/20 04:43:33;;;;;;;40.95;20.60;;;;;;;;;;7347656;19;20864;-82
2023/03/20 04:45:58;;;;;;;36.17;19.02;;;;;;;;;;7347298;19;20000;-83
2023/03/20 04:48:23;;;;;;;38.40;20.05;;;;;;;;;;7363040;19;20344;-78
2023/03/20 04:50:49;;;;;;;37.63;19.70;;;;;;;;;;7370123;19;19999;-81
2023/03/20 04:53:15;;;;;;;40.67;22.30;;;;;;;;;;7355717;19;20513;-80
2023/03/20 04:55:40;;;;;;;40.97;20.45;;;;;;;;;;7369180;19;20070;-80
2023/03/20 04:58:06;;;;;;;43.50;21.27;;;;;;;;;;7368044;19;20002;-81
2023/03/20 05:00:31;;;;;;;43.97;22.55;;;;;;;;;;7365024;19;20228;-79
2023/03/20 05:02:57;;;;;;;40.20;21.80;;;;;;;;;;7363136;19;19999;-79
2023/03/20 05:05:22;;;;;;;43.17;22.30;;;;;;;;;;7361854;19;19995;-79
2023/03/20 05:07:48;;;;;;;43.50;22.17;;;;;;;;;;7361879;19;20333;-79
2023/03/20 05:10:13;;;;;;;36.20;20.08;;;;;;;;;;7366432;19;20023;-78
2023/03/20 05:12:38;;;;;;;40.30;22.03;;;;;;;;;;7362506;19;20095;-80
2023/03/20 05:15:03;;;;;;;39.47;21.42;;;;;;;;;;7371088;19;20235;-80
2023/03/20 05:17:29;;;;;;;41.03;21.40;;;;;;;;;;7360694;19;21076;-78
2023/03/20 05:19:54;;;;;;;41.05;21.17;;;;;;;;;;7367387;19;19999;-84
2023/03/20 05:22:19;;;;;;;43.10;22.25;;;;;;;;;;7360444;19;20459;-83
2023/03/20 05:24:44;;;;;;;43.95;22.30;;;;;;;;;;7354890;19;20250;-82
2023/03/20 05:27:10;;;;;;;39.75;21.45;;;;;;;;;;7359497;19;19999;-84
2023/03/20 05:29:35;;;;;;;41.45;20.55;;;;;;;;;;7367364;19;20010;-80
2023/03/20 05:32:00;;;;;;;38.25;20.70;;;;;;;;;;7359933;19;20030;-81
2023/03/20 05:34:26;;;;;;;42.22;20.10;;;;;;;;;;7366102;19;20057;-82
2023/03/20 05:36:52;;;;;;;40.00;20.55;;;;;;;;;;7360620;19;20065;-82
2023/03/20 05:39:17;;;;;;;39.80;19.25;;;;;;;;;;7365582;19;20005;-79
2023/03/20 05:41:42;;;;;;;35.05;17.92;;;;;;;;;;7365580;19;19998;-84
2023/03/20 05:44:07;;;;;;;34.35;17.92;;;;;;;;;;7362449;19;21076;-84
2023/03/20 05:46:32;;;;;;;36.90;18.15;;;;;;;;;;7370679;19;20596;-81
2023/03/20 05:48:57;;;;;;;30.95;15.98;;;;;;;;;;7361213;19;21014;-82
2023/03/20 05:51:23;;;;;;;31.83;16.57;;;;;;;;;;7355486;19;20227;-86
2023/03/20 05:53:48;;;;;;;36.58;15.45;;;;;;;;;;7360021;19;20256;-80
2023/03/20 05:56:13;;;;;;;29.88;14.98;;;;;;;;;;7371406;19;19995;-84
2023/03/20 05:58:39;;;;;;;33.15;17.13;;;;;;;;;;7365815;19;20066;-82
2023/03/20 06:01:04;;;;;;;37.35;16.55;;;;;;;;;;7366881;19;20014;-82
2023/03/20 06:03:29;;;;;;;31.08;16.70;;;;;;;;;;7364905;19;20031;-82
2023/03/20 06:05:55;;;;;;;41.65;16.73;;;;;;;;;;7370450;19;20022;-84
2023/03/20 06:08:20;;;;;;;38.03;17.83;;;;;;;;;;7360661;19;21146;-82
2023/03/20 06:10:45;;;;;;;32.23;15.17;;;;;;;;;;7367614;19;20007;-84
2023/03/20 06:13:10;;;;;;;29.08;15.57;;;;;;;;;;7365587;19;20272;-85
2023/03/20 06:15:36;;;;;;;36.38;16.17;;;;;;;;;;7376635;19;20359;-82
2023/03/20 06:18:01;;;;;;;36.20;16.35;;;;;;;;;;7370950;19;20298;-85
2023/03/20 06:20:26;;;;;;;32.57;15.93;;;;;;;;;;7366796;19;20016;-84
2023/03/20 06:22:51;;;;;;;39.50;16.60;;;;;;;;;;7369814;19;20232;-82
2023/03/20 06:25:17;;;;;;;27.92;14.02;;;;;;;;;;7370587;19;20003;-84
2023/03/20 06:27:42;;;;;;;28.98;14.35;;;;;;;;;;7368168;19;20005;-85
2023/03/20 06:30:08;;;;;;;34.25;15.02;;;;;;;;;;7372537;19;20023;-83
2023/03/20 06:32:33;;;;;;;31.20;14.50;;;;;;;;;;7364742;19;20566;-83
2023/03/20 06:34:58;;;;;;;33.40;14.53;;;;;;;;;;7375766;19;20352;-82
2023/03/20 06:37:23;;;;;;;29.20;14.73;;;;;;;;;;7370631;19;20368;-84
2023/03/20 06:39:48;;;;;;;27.08;13.63;;;;;;;;;;7373211;19;20010;-83
2023/03/20 06:42:14;;;;;;;28.85;13.40;;;;;;;;;;7358278;19;20040;-86
2023/03/20 06:44:39;;;;;;;30.60;13.75;;;;;;;;;;7373484;19;20003;-81
2023/03/20 06:47:04;;;;;;;24.95;12.95;;;;;;;;;;7360843;19;20009;-85
2023/03/20 06:49:29;;;;;;;23.95;13.07;;;;;;;;;;7336734;19;20010;-82
2023/03/20 06:51:55;;;;;;;26.15;13.88;;;;;;;;;;7360710;19;20026;-83
2023/03/20 06:54:20;;;;;;;30.23;13.02;;;;;;;;;;7351577;19;20499;-83
2023/03/20 06:56:46;;;;;;;28.15;13.18;;;;;;;;;;7362607;19;20111;-81
2023/03/20 06:59:11;;;;;;;26.03;12.20;;;;;;;;;;7344627;19;20009;-87
2023/03/20 07:01:37;;;;;;;28.38;13.25;;;;;;;;;;7358246;19;20278;-85
2023/03/20 07:04:02;;;;;;;24.45;12.70;;;;;;;;;;7367760;19;19994;-81
2023/03/20 07:06:27;;;;;;;25.10;12.70;;;;;;;;;;7366437;19;20070;-82
2023/03/20 07:08:53;;;;;;;24.73;11.63;;;;;;;;;;7369703;19;20471;-84
2023/03/20 07:11:18;;;;;;;22.85;11.93;;;;;;;;;;7369479;19;20231;-85
2023/03/20 07:13:43;;;;;;;25.15;12.00;;;;;;;;;;7370510;19;19991;-81
2023/03/20 07:16:08;;;;;;;25.40;12.90;;;;;;;;;;7362663;19;20002;-82
2023/03/20 07:18:34;;;;;;;25.95;12.45;;;;;;;;;;7369333;19;20022;-81
2023/03/20 07:21:01;;;;;;;23.77;12.10;;;;;;;;;;7335687;19;20002;-82
2023/03/20 07:23:26;;;;;;;25.58;13.65;;;;;;;;;;7351900;19;20346;-82
2023/03/20 07:25:51;;;;;;;32.00;13.82;;;;;;;;;;7368436;19;20459;-85
2023/03/20 07:28:17;;;;;;;30.63;13.67;;;;;;;;;;7368697;19;20025;-84
2023/03/20 07:30:42;;;;;;;26.63;13.27;;;;;;;;;;7373290;19;20583;-82
2023/03/20 07:33:07;;;;;;;27.42;13.68;;;;;;;;;;7362423;19;20239;-81
2023/03/20 07:35:32;;;;;;;30.70;14.30;;;;;;;;;;7368903;19;20241;-81
2023/03/20 07:37:57;;;;;;;23.27;11.93;;;;;;;;;;7368039;19;20267;-82
2023/03/20 07:40:23;;;;;;;25.33;12.73;;;;;;;;;;7364412;19;20873;-83
2023/03/20 07:42:48;;;;;;;25.70;13.90;;;;;;;;;;7366019;19;19998;-81
2023/03/20 07:45:15;;;;;;;29.88;13.52;;;;;;;;;;7355660;19;20301;-87
2023/03/20 07:47:41;;;;;;;24.77;13.00;;;;;;;;;;7357704;19;20037;-82
2023/03/20 07:50:06;;;;;;;27.05;12.25;;;;;;;;;;7361815;19;20755;-84
2023/03/20 07:52:31;;;;;;;24.13;11.90;;;;;;;;;;7346674;19;19998;-82
2023/03/20 07:54:57;;;;;;;24.33;11.95;;;;;;;;;;7361710;19;20928;-84
2023/03/20 07:57:22;;;;;;;25.23;11.00;;;;;;;;;;7356059;19;20102;-85
2023/03/20 07:59:47;;;;;;;23.90;11.52;;;;;;;;;;7367032;19;20589;-83
2023/03/20 08:02:13;;;;;;;22.25;10.98;;;;;;;;;;7356835;19;20013;-84
2023/03/20 08:04:38;;;;;;;24.20;11.65;;;;;;;;;;7366064;19;20223;-86
2023/03/20 08:07:03;;;;;;;22.70;11.95;;;;;;;;;;7359086;19;20417;-84
2023/03/20 08:09:29;;;;;;;21.90;11.63;;;;;;;;;;7365355;19;19998;-82
2023/03/20 08:11:54;;;;;;;23.88;12.45;;;;;;;;;;7359661;19;20222;-82
2023/03/20 08:14:19;;;;;;;27.20;12.45;;;;;;;;;;7365473;19;20006;-82
2023/03/20 08:16:44;;;;;;;26.23;12.80;;;;;;;;;;7362639;19;20738;-83
2023/03/20 08:19:09;;;;;;;24.93;11.97;;;;;;;;;;7368273;19;19998;-81
2023/03/20 08:21:35;;;;;;;24.02;12.15;;;;;;;;;;7359117;19;20302;-85
2023/03/20 08:24:00;;;;;;;26.30;12.13;;;;;;;;;;7367896;19;20100;-82
2023/03/20 08:26:25;;;;;;;20.77;11.45;;;;;;;;;;7360743;19;20263;-83
2023/03/20 08:28:50;;;;;;;20.83;10.63;;;;;;;;;;7365267;19;20689;-84
2023/03/20 08:31:16;;;;;;;18.35;9.55;;;;;;;;;;7368066;19;20015;-83
2023/03/20 08:33:42;;;;;;;20.13;9.55;;;;;;;;;;7365548;19;20007;-83
2023/03/20 08:36:08;;;;;;;22.23;10.13;;;;;;;;;;7369551;19;20003;-82
2023/03/20 08:38:33;;;;;;;21.23;10.23;;;;;;;;;;7358475;19;20494;-83
2023/03/20 08:40:58;;;;;;;21.33;9.93;;;;;;;;;;7364773;19;20006;-84
2023/03/20 08:43:23;;;;;;;21.05;10.20;;;;;;;;;;7363936;19;20367;-86
2023/03/20 08:45:48;;;;;;;27.40;10.97;;;;;;;;;;7361263;19;20467;-84
2023/03/20 08:48:14;;;;;;;24.85;9.85;;;;;;;;;;7363669;19;20320;-83
2023/03/20 08:50:39;;;;;;;22.90;11.18;;;;;;;;;;7361462;19;20001;-82
2023/03/20 08:53:04;;;;;;;21.30;10.37;;;;;;;;;;7363624;19;20008;-85
2023/03/20 08:55:33;;;;;;;23.67;10.65;;;;;;;;;;7363778;19;20263;-84
2023/03/20 08:57:58;;;;;;;23.70;9.25;;;;;;;;;;7366978;19;20006;-82
2023/03/20 09:00:24;;;;;;;20.67;10.10;;;;;;;;;;7365121;19;20475;-84
2023/03/20 09:02:50;;;;;;;19.50;8.82;;;;;;;;;;7351667;19;20005;-83
2023/03/20 09:05:16;;;;;;;24.08;9.00;;;;;;;;;;7367473;19;20116;-85
2023/03/20 09:07:41;;;;;;;19.33;9.55;;;;;;;;;;7333969;19;20419;-84
2023/03/20 09:10:07;;;;;;;21.67;8.57;;;;;;;;;;7365581;19;20146;-82
2023/03/20 09:12:32;;;;;;;15.52;8.07;;;;;;;;;;7358673;19;20412;-82
2023/03/20 09:14:58;;;;;;;30.52;8.68;;;;;;;;;;7359236;19;20091;-84
2023/03/20 09:17:23;;;;;;;19.77;7.47;;;;;;;;;;7354263;19;19994;-84
2023/03/20 09:19:48;;;;;;;19.92;7.93;;;;;;;;;;7371092;19;20013;-82
2023/03/20 09:22:16;;;;;;;15.77;7.37;;;;;;;;;;7372184;19;19999;-85
2023/03/20 09:24:42;;;;;;;19.27;7.97;;;;;;;;;;7363767;19;20862;-86
2023/03/20 09:27:07;;;;;;;14.25;7.03;;;;;;;;;;7373825;19;20028;-83
2023/03/20 09:29:32;;;;;;;16.40;7.63;;;;;;;;;;7363825;19;20007;-82
2023/03/20 09:31:57;;;;;;;19.60;7.67;;;;;;;;;;7374054;19;20235;-85
2023/03/20 09:34:23;;;;;;;18.48;8.57;;;;;;;;;;7374358;19;20243;-83
2023/03/20 09:36:48;;;;;;;15.48;7.90;;;;;;;;;;7375084;19;20007;-83
2023/03/20 09:39:13;;;;;;;16.77;7.22;;;;;;;;;;7372083;19;20009;-82
2023/03/20 09:41:39;;;;;;;13.70;6.78;;;;;;;;;;7364732;19;20503;-82
2023/03/20 09:44:44;;;;;;;16.08;6.43;;;;;;;;;;7376283;19;20254;-83
2023/03/20 09:47:10;;;;;;;18.17;7.40;;;;;;;;;;7369513;19;20015;-83
2023/03/20 09:49:35;;;;;;;15.03;6.23;;;;;;;;;;7360657;19;20003;-82
2023/03/20 09:52:02;;;;;;;20.08;8.02;;;;;;;;;;7360651;19;20572;-83
2023/03/20 09:54:32;;;;;;;14.20;5.45;;;;;;;;;;7369881;19;20007;-85
2023/03/20 09:56:58;;;;;;;13.45;5.53;;;;;;;;;;7372721;19;20090;-84
2023/03/20 09:59:24;;;;;;;14.80;6.22;;;;;;;;;;7372142;19;20074;-83
2023/03/20 10:01:51;;;;;;;14.30;5.65;;;;;;;;;;7365341;19;20006;-83
2023/03/20 10:04:17;;;;;;;12.20;5.40;;;;;;;;;;7374216;19;20009;-83
2023/03/20 10:06:42;;;;;;;10.80;4.32;;;;;;;;;;7365061;19;20520;-83
2023/03/20 10:09:13;;;;;;;11.55;4.50;;;;;;;;;;7372712;19;20130;-82
2023/03/20 10:11:49;;;;;;;14.30;4.88;;;;;;;;;;7370601;19;20006;-82
2023/03/20 10:14:23;;;;;;;11.63;4.47;;;;;;;;;;7374648;19;20003;-82
2023/03/20 10:16:57;;;;;;;11.65;4.00;;;;;;;;;;7367676;19;20006;-83
2023/03/20 10:19:30;;;;;;;10.07;4.03;;;;;;;;;;7367288;19;20560;-84
2023/03/20 10:22:13;;;;;;;10.98;3.78;;;;;;;;;;7351862;19;20458;-84
2023/03/20 10:24:41;;;;;;;16.63;4.60;;;;;;;;;;7358589;19;19999;-82
2023/03/20 10:27:26;;;;;;;13.43;4.22;;;;;;;;;;7371938;19;20459;-81
2023/03/20 10:30:05;;;;;;;11.60;3.70;;;;;;;;;;7363751;19;19998;-85
2023/03/20 10:32:51;;;;;;;14.10;4.03;;;;;;;;;;7361842;19;20010;-83
2023/03/20 10:35:20;;;;;;;13.25;4.10;;;;;;;;;;7372065;19;19998;-85
2023/03/20 10:38:11;;;;;;;7.75;3.10;;;;;;;;;;7366187;19;20803;-83
2023/03/20 10:40:38;;;;;;;11.85;3.40;;;;;;;;;;7368991;19;20019;-82
2023/03/20 10:43:17;;;;;;;7.90;2.70;;;;;;;;;;7369324;19;20022;-82
2023/03/20 10:45:51;;;;;;;11.48;3.03;;;;;;;;;;7360693;19;20003;-84
2023/03/20 10:48:21;;;;;;;12.27;3.17;;;;;;;;;;7363144;19;20019;-82
2023/03/20 10:50:49;;;;;;;9.02;2.65;;;;;;;;;;7349495;19;20011;-86
2023/03/20 10:53:40;;;;;;;9.95;3.00;;;;;;;;;;7364994;19;20002;-79
2023/03/20 10:56:09;;;;;;;10.27;2.83;;;;;;;;;;7371745;19;20084;-79
2023/03/20 10:58:37;;;;;;;11.55;3.05;;;;;;;;;;7369309;19;20034;-81
2023/03/20 11:01:02;;;;;;;11.77;3.47;;;;;;;;;;7365343;19;19999;-83
2023/03/20 11:03:31;;;;;;;12.82;3.10;;;;;;;;;;7339825;19;20565;-82
2023/03/20 11:05:59;;;;;;;12.55;3.15;;;;;;;;;;7365001;19;20010;-83
2023/03/20 11:08:29;;;;;;;10.98;3.30;;;;;;;;;;7360216;19;21038;-83
2023/03/20 11:10:58;;;;;;;8.75;3.05;;;;;;;;;;7371783;19;20003;-86
2023/03/20 11:13:25;;;;;;;9.27;3.20;;;;;;;;;;7347149;19;20062;-82
2023/03/20 11:15:51;;;;;;;10.60;3.08;;;;;;;;;;7339541;19;20487;-84
2023/03/20 11:18:16;;;;;;;10.82;3.33;;;;;;;;;;7359366;19;20173;-85
2023/03/20 11:20:52;;;;;;;15.75;2.80;;;;;;;;;;7360731;19;20710;-86
2023/03/20 11:23:19;;;;;;;10.02;3.67;;;;;;;;;;7358770;19;20244;-82
2023/03/20 11:25:50;;;;;;;8.00;2.70;;;;;;;;;;7332812;19;20454;-85
2023/03/20 11:28:24;;;;;;;12.90;3.55;;;;;;;;;;7367356;19;20006;-82
2023/03/20 11:30:55;;;;;;;13.95;3.80;;;;;;;;;;7363220;19;20009;-82
2023/03/20 11:33:21;;;;;;;10.32;3.55;;;;;;;;;;7364434;19;20085;-86
2023/03/20 11:35:46;;;;;;;10.38;3.33;;;;;;;;;;7369427;19;20006;-86
2023/03/20 11:38:11;;;;;;;11.18;2.95;;;;;;;;;;7355726;19;20365;-82
2023/03/20 11:40:37;;;;;;;14.25;3.60;;;;;;;;;;7366205;19;20047;-82
2023/03/20 11:43:05;;;;;;;9.23;3.42;;;;;;;;;;7363794;19;19994;-85
2023/03/20 11:45:34;;;;;;;11.60;3.50;;;;;;;;;;7365522;19;20006;-82
2023/03/20 11:48:00;;;;;;;12.68;3.15;;;;;;;;;;7344259;19;20010;-84
2023/03/20 11:50:32;;;;;;;10.40;3.28;;;;;;;;;;7361566;19;20340;-82
2023/03/20 11:52:57;;;;;;;12.98;3.40;;;;;;;;;;7355536;19;20003;-84
2023/03/20 11:55:27;;;;;;;9.07;2.92;;;;;;;;;;7366656;19;20009;-82
2023/03/20 11:58:00;;;;;;;12.35;3.58;;;;;;;;;;7362103;19;20002;-86
2023/03/20 12:00:27;;;;;;;10.90;3.08;;;;;;;;;;7361036;19;20007;-84
2023/03/20 12:02:52;;;;;;;10.95;3.42;;;;;;;;;;7359313;19;20125;-83
2023/03/20 12:05:18;;;;;;;9.52;3.25;;;;;;;;;;7367024;19;19990;-83
2023/03/20 12:07:45;;;;;;;10.50;3.70;;;;;;;;;;7356845;19;19990;-86
2023/03/20 12:10:11;;;;;;;10.27;3.15;;;;;;;;;;7362911;19;19998;-83
2023/03/20 12:12:40;;;;;;;12.35;3.35;;;;;;;;;;7360170;19;20354;-82
2023/03/20 12:15:11;;;;;;;13.32;2.70;;;;;;;;;;7364037;19;19998;-84
2023/03/20 12:17:42;;;;;;;9.68;3.13;;;;;;;;;;7320990;19;20521;-83
2023/03/20 12:20:15;;;;;;;13.00;3.25;;;;;;;;;;7359377;19;20366;-80
2023/03/20 12:23:03;;;;;;;7.85;3.10;;;;;;;;;;7358920;19;19998;-83
2023/03/20 12:25:34;;;;;;;8.57;2.78;;;;;;;;;;7359427;19;20029;-85
2023/03/20 12:28:18;;;;;;;12.05;3.45;;;;;;;;;;7359784;19;20009;-81
2023/03/20 12:30:52;;;;;;;11.10;3.28;;;;;;;;;;7362678;19;19998;-84
2023/03/20 12:33:21;;;;;;;10.70;2.60;;;;;;;;;;7357216;19;20021;-79
2023/03/20 12:35:49;;;;;;;12.40;3.67;;;;;;;;;;7369177;19;20007;-81
2023/03/20 12:38:26;;;;;;;12.85;3.13;;;;;;;;;;7365475;19;20417;-79
2023/03/20 12:40:53;;;;;;;12.45;3.25;;;;;;;;;;7370177;19;20131;-83
2023/03/20 12:43:29;;;;;;;14.10;2.85;;;;;;;;;;7364913;19;20364;-85
2023/03/20 12:46:00;;;;;;;8.27;2.88;;;;;;;;;;7361640;19;20089;-84
2023/03/20 12:48:40;;;;;;;15.52;3.78;;;;;;;;;;7348409;19;20010;-85
2023/03/20 12:51:18;;;;;;;15.68;3.45;;;;;;;;;;7363697;19;20027;-85
2023/03/20 12:53:58;;;;;;;9.48;3.35;;;;;;;;;;7357403;19;20009;-81
2023/03/20 12:56:30;;;;;;;11.40;3.40;;;;;;;;;;7368708;19;20010;-83
2023/03/20 12:59:04;;;;;;;12.80;3.45;;;;;;;;;;7362336;19;20040;-86
2023/03/20 13:01:41;;;;;;;10.23;3.22;;;;;;;;;;7362672;19;19994;-83
2023/03/20 13:04:09;;;;;;;12.15;3.13;;;;;;;;;;7365867;19;20078;-82
2023/03/20 13:06:44;;;;;;;15.18;4.43;;;;;;;;;;7360677;19;20386;-80
2023/03/20 13:09:26;;;;;;;12.70;3.70;;;;;;;;;;7354349;19;20431;-81
2023/03/20 13:11:57;;;;;;;10.98;2.72;;;;;;;;;;7361041;19;20098;-80
2023/03/20 13:14:25;;;;;;;9.80;3.03;;;;;;;;;;7369031;19;20002;-80
2023/03/20 13:16:56;;;;;;;10.23;3.53;;;;;;;;;;7353467;19;20667;-82
2023/03/20 13:19:26;;;;;;;9.55;3.20;;;;;;;;;;7367829;19;20403;-81
2023/03/20 13:22:00;;;;;;;12.70;3.38;;;;;;;;;;7332977;19;20458;-84
2023/03/20 13:24:31;;;;;;;15.80;3.50;;;;;;;;;;7362172;19;20002;-83
2023/03/20 13:27:35;;;;;;;16.13;3.67;;;;;;;;;;7357412;19;20021;-81
2023/03/20 13:30:07;;;;;;;14.25;3.30;;;;;;;;;;7361726;19;20560;-81
2023/03/20 13:32:38;;;;;;;11.50;3.53;;;;;;;;;;7353314;19;20123;-87
2023/03/20 13:35:06;;;;;;;13.20;3.75;;;;;;;;;;7364130;19;20058;-82
2023/03/20 13:37:34;;;;;;;9.38;3.10;;;;;;;;;;7359503;19;19995;-81
2023/03/20 13:40:18;;;;;;;13.13;3.67;;;;;;;;;;7369691;19;20019;-83
2023/03/20 13:42:46;;;;;;;14.80;2.90;;;;;;;;;;7355404;19;20036;-84
2023/03/20 13:45:26;;;;;;;9.57;3.00;;;;;;;;;;7367742;19;20003;-81
2023/03/20 13:47:52;;;;;;;10.63;3.08;;;;;;;;;;7354556;19;20034;-84
2023/03/20 13:50:30;;;;;;;10.55;3.13;;;;;;;;;;7361175;19;19999;-82
2023/03/20 13:52:59;;;;;;;12.70;3.08;;;;;;;;;;7354059;19;20331;-83
2023/03/20 13:55:30;;;;;;;11.95;3.20;;;;;;;;;;7366762;19;19998;-83
2023/03/20 13:58:10;;;;;;;10.88;3.70;;;;;;;;;;7363078;19;20007;-84
2023/03/20 14:00:58;;;;;;;13.90;3.08;;;;;;;;;;7355196;19;20006;-82
2023/03/20 14:03:27;;;;;;;11.88;3.85;;;;;;;;;;7357616;19;20041;-82
2023/03/20 14:05:52;;;;;;;13.25;2.92;;;;;;;;;;7360572;19;20007;-86
2023/03/20 14:08:20;;;;;;;11.25;3.58;;;;;;;;;;7366415;19;20399;-82
2023/03/20 14:10:46;;;;;;;15.13;3.17;;;;;;;;;;7371084;19;20033;-82
2023/03/20 14:13:17;;;;;;;14.40;3.08;;;;;;;;;;7373657;19;20003;-82
2023/03/20 14:15:49;;;;;;;11.75;3.63;;;;;;;;;;7374874;19;20018;-84
2023/03/20 14:18:15;;;;;;;13.38;3.45;;;;;;;;;;7365208;19;19999;-81
2023/03/20 14:20:41;;;;;;;13.30;3.40;;;;;;;;;;7369246;19;20013;-86
2023/03/20 14:23:15;;;;;;;14.27;3.22;;;;;;;;;;7365827;19;20479;-86
2023/03/20 14:25:40;;;;;;;15.85;4.75;;;;;;;;;;7374282;19;20678;-84
2023/03/20 14:28:11;;;;;;;11.50;3.42;;;;;;;;;;7365767;19;20005;-81
2023/03/20 14:30:38;;;;;;;13.40;3.70;;;;;;;;;;7373112;19;20010;-83